Time;durP1;ratioP1;P1;durP2;ratioP2;P2;SDS_P1;SDS_P2;PMS_P1;PMS_P2;Temp;Humidity;BMP_temperature;BMP_pressure;BME280_temperature;BME280_humidity;BME280_pressure;Samples;Min_cycle;Max_cycle;Signal;HPM_P1;HPM_P2
2022/06/30 00:02:54;;;;;;;15.52;10.90;;;;;;;;;;10262771;28;20457;-84
2022/06/30 00:07:57;;;;;;;17.08;12.00;;;;;;;;;;10263485;28;20597;-84
2022/06/30 00:12:59;;;;;;;19.17;12.15;;;;;;;;;;10262638;28;20416;-84
2022/06/30 00:18:01;;;;;;;18.92;11.13;;;;;;;;;;10263228;28;20430;-83
2022/06/30 00:23:04;;;;;;;16.65;11.65;;;;;;;;;;10263896;28;20778;-85
2022/06/30 00:28:06;;;;;;;17.20;11.85;;;;;;;;;;10263110;28;20496;-84
2022/06/30 00:33:07;;;;;;;17.83;11.90;;;;;;;;;;10264636;28;20763;-84
2022/06/30 00:38:11;;;;;;;16.67;11.80;;;;;;;;;;10265603;28;20426;-83
2022/06/30 00:43:14;;;;;;;16.95;11.93;;;;;;;;;;10267288;28;21177;-83
2022/06/30 00:48:18;;;;;;;15.57;11.30;;;;;;;;;;10265297;28;20419;-82
2022/06/30 00:53:23;;;;;;;15.73;12.17;;;;;;;;;;10263589;28;20410;-84
2022/06/30 00:58:26;;;;;;;15.70;11.52;;;;;;;;;;10261715;28;20517;-83
2022/06/30 01:03:28;;;;;;;20.02;12.98;;;;;;;;;;10266822;28;20407;-83
2022/06/30 01:08:33;;;;;;;19.08;12.88;;;;;;;;;;10261002;28;20501;-84
2022/06/30 01:13:35;;;;;;;20.67;12.48;;;;;;;;;;10260787;28;20438;-83
2022/06/30 01:18:37;;;;;;;17.80;11.80;;;;;;;;;;10269462;28;20907;-84
2022/06/30 01:23:41;;;;;;;18.50;12.18;;;;;;;;;;10265944;28;20409;-84
2022/06/30 01:28:42;;;;;;;17.52;11.85;;;;;;;;;;10262164;28;20476;-85
2022/06/30 01:33:44;;;;;;;17.73;12.03;;;;;;;;;;10265996;28;20406;-83
2022/06/30 01:38:48;;;;;;;17.03;11.87;;;;;;;;;;10258260;28;20623;-83
2022/06/30 01:43:49;;;;;;;19.20;12.63;;;;;;;;;;10266125;28;20511;-83
2022/06/30 01:48:51;;;;;;;16.80;12.73;;;;;;;;;;10260704;28;20779;-84
2022/06/30 01:53:54;;;;;;;21.15;12.65;;;;;;;;;;10258927;28;20808;-84
2022/06/30 01:58:56;;;;;;;15.82;12.65;;;;;;;;;;10260018;28;20521;-84
2022/06/30 02:04:46;;;;;;;16.90;12.88;;;;;;;;;;10272121;28;20758;-84
2022/06/30 02:09:22;;;;;;;15.63;12.50;;;;;;;;;;10291396;23;20425;-82
2022/06/30 02:14:24;;;;;;;17.27;12.13;;;;;;;;;;10237112;29;20864;-84
2022/06/30 02:19:25;;;;;;;16.80;12.40;;;;;;;;;;10237273;29;20427;-84
2022/06/30 02:24:28;;;;;;;19.57;12.83;;;;;;;;;;10238294;29;20399;-84
2022/06/30 02:29:30;;;;;;;16.23;12.65;;;;;;;;;;10231552;29;20427;-84
2022/06/30 02:34:32;;;;;;;20.58;12.77;;;;;;;;;;10237233;29;20499;-84
2022/06/30 02:39:35;;;;;;;18.37;13.47;;;;;;;;;;10238157;29;20645;-84
2022/06/30 02:44:37;;;;;;;18.92;13.38;;;;;;;;;;10235799;28;20462;-84
2022/06/30 02:49:39;;;;;;;20.05;13.75;;;;;;;;;;10236750;29;20420;-84
2022/06/30 02:54:42;;;;;;;22.40;16.33;;;;;;;;;;10237673;29;20422;-84
2022/06/30 02:59:44;;;;;;;23.52;18.75;;;;;;;;;;10237899;29;20420;-84
2022/06/30 03:04:46;;;;;;;23.23;17.92;;;;;;;;;;10238892;28;20490;-84
2022/06/30 03:09:49;;;;;;;25.65;17.85;;;;;;;;;;10244499;29;20919;-84
2022/06/30 03:14:52;;;;;;;27.17;18.70;;;;;;;;;;10240949;28;20487;-84
2022/06/30 03:19:54;;;;;;;25.85;17.55;;;;;;;;;;10238766;29;20792;-84
2022/06/30 03:24:57;;;;;;;22.55;15.68;;;;;;;;;;10243553;29;20412;-84
2022/06/30 03:29:59;;;;;;;20.60;13.35;;;;;;;;;;10217320;29;20404;-84
2022/06/30 03:35:00;;;;;;;14.35;11.10;;;;;;;;;;10243855;28;20849;-84
2022/06/30 03:40:04;;;;;;;12.60;9.23;;;;;;;;;;10243630;29;20432;-84
2022/06/30 03:45:08;;;;;;;14.18;8.85;;;;;;;;;;10242777;29;20503;-84
2022/06/30 03:50:10;;;;;;;12.33;7.87;;;;;;;;;;10242486;29;20416;-84
2022/06/30 03:55:14;;;;;;;15.23;8.43;;;;;;;;;;10242906;29;20894;-84
2022/06/30 04:00:16;;;;;;;12.75;8.00;;;;;;;;;;10242922;29;20471;-84
2022/06/30 04:05:18;;;;;;;14.13;8.10;;;;;;;;;;10235879;29;20964;-84
2022/06/30 04:10:22;;;;;;;13.57;8.87;;;;;;;;;;10219641;29;20416;-84
2022/06/30 04:15:24;;;;;;;15.80;8.80;;;;;;;;;;10227053;28;20769;-84
2022/06/30 04:20:25;;;;;;;13.25;8.80;;;;;;;;;;10224851;29;20519;-84
2022/06/30 04:25:29;;;;;;;13.10;9.00;;;;;;;;;;10224814;29;20502;-84
2022/06/30 04:35:50;;;;;;;13.85;9.13;;;;;;;;;;10232941;29;20447;-84
2022/06/30 04:46:12;;;;;;;14.27;8.47;;;;;;;;;;10227407;29;20400;-84
2022/06/30 04:51:14;;;;;;;14.13;8.23;;;;;;;;;;10227838;29;20415;-83
2022/06/30 04:56:18;;;;;;;13.60;8.80;;;;;;;;;;10227306;29;20757;-84
2022/06/30 05:01:20;;;;;;;12.18;7.85;;;;;;;;;;10228607;28;20917;-84
2022/06/30 05:06:22;;;;;;;17.95;8.20;;;;;;;;;;10230755;29;20426;-84
2022/06/30 05:11:25;;;;;;;15.35;8.30;;;;;;;;;;10228545;29;20517;-83
2022/06/30 05:16:29;;;;;;;14.30;7.93;;;;;;;;;;10226245;29;20591;-84
2022/06/30 05:21:31;;;;;;;11.73;7.43;;;;;;;;;;10223314;29;20517;-84
2022/06/30 05:26:34;;;;;;;10.30;6.80;;;;;;;;;;10224371;29;20414;-84
2022/06/30 05:31:35;;;;;;;10.15;6.10;;;;;;;;;;10227696;29;20755;-84
2022/06/30 05:36:37;;;;;;;14.88;6.90;;;;;;;;;;10252536;29;20431;-84
2022/06/30 05:41:40;;;;;;;15.50;6.30;;;;;;;;;;10237635;29;20466;-84
2022/06/30 05:46:43;;;;;;;14.70;6.75;;;;;;;;;;10229582;29;20913;-83
2022/06/30 05:51:45;;;;;;;13.73;6.93;;;;;;;;;;10223696;29;20420;-84
2022/06/30 05:56:49;;;;;;;13.97;6.73;;;;;;;;;;10226852;29;21019;-83
2022/06/30 06:01:50;;;;;;;15.45;6.80;;;;;;;;;;10229025;29;20600;-83
2022/06/30 06:06:52;;;;;;;14.10;6.63;;;;;;;;;;10220525;29;20497;-84
2022/06/30 06:11:56;;;;;;;13.70;6.50;;;;;;;;;;10229221;29;20412;-85
2022/06/30 06:16:57;;;;;;;14.57;6.60;;;;;;;;;;10221144;29;20495;-84
2022/06/30 06:22:00;;;;;;;12.65;6.47;;;;;;;;;;10232208;29;20468;-83
2022/06/30 06:27:06;;;;;;;14.25;6.80;;;;;;;;;;10220080;29;20494;-83
2022/06/30 06:32:08;;;;;;;14.33;6.90;;;;;;;;;;10227964;29;20494;-83
2022/06/30 06:37:10;;;;;;;12.50;6.85;;;;;;;;;;10232423;29;20423;-83
2022/06/30 06:42:13;;;;;;;13.80;6.38;;;;;;;;;;10236530;28;20424;-84
2022/06/30 06:47:16;;;;;;;14.40;6.68;;;;;;;;;;10240582;28;20445;-86
2022/06/30 06:52:17;;;;;;;13.73;6.60;;;;;;;;;;10239649;29;20416;-86
2022/06/30 06:57:21;;;;;;;11.73;6.17;;;;;;;;;;10232555;29;20492;-85
2022/06/30 07:02:22;;;;;;;14.57;6.40;;;;;;;;;;10234161;28;20432;-86
2022/06/30 07:07:24;;;;;;;12.07;6.13;;;;;;;;;;10228766;28;20507;-86
2022/06/30 07:12:28;;;;;;;12.05;5.50;;;;;;;;;;10229542;28;20434;-87
2022/06/30 07:17:29;;;;;;;12.93;5.87;;;;;;;;;;10230943;29;20418;-85
2022/06/30 07:22:32;;;;;;;14.43;6.43;;;;;;;;;;10232922;29;20497;-85
2022/06/30 07:27:35;;;;;;;13.57;6.20;;;;;;;;;;10235491;29;20511;-87
2022/06/30 07:32:37;;;;;;;15.43;6.55;;;;;;;;;;10234316;29;20468;-87
2022/06/30 07:37:39;;;;;;;11.15;6.25;;;;;;;;;;10238975;29;20427;-86
2022/06/30 07:42:43;;;;;;;11.40;6.45;;;;;;;;;;10240752;29;20436;-88
2022/06/30 07:47:46;;;;;;;13.33;6.40;;;;;;;;;;10215708;29;20450;-88
2022/06/30 07:52:48;;;;;;;16.17;6.73;;;;;;;;;;10240819;28;20893;-88
2022/06/30 07:57:51;;;;;;;10.87;5.70;;;;;;;;;;10239578;29;20418;-88
2022/06/30 08:02:53;;;;;;;13.07;5.70;;;;;;;;;;10228100;29;20722;-86
2022/06/30 08:07:55;;;;;;;11.93;6.07;;;;;;;;;;10234460;28;20962;-86
2022/06/30 08:13:00;;;;;;;12.10;5.60;;;;;;;;;;10236298;29;20456;-86
2022/06/30 08:18:03;;;;;;;11.32;5.57;;;;;;;;;;10233051;29;20757;-86
2022/06/30 08:23:05;;;;;;;11.00;5.40;;;;;;;;;;10232314;29;20433;-86
2022/06/30 08:28:09;;;;;;;14.40;6.40;;;;;;;;;;10232322;29;20416;-84
2022/06/30 08:33:11;;;;;;;12.53;6.10;;;;;;;;;;10235617;29;20405;-85
2022/06/30 08:38:12;;;;;;;8.77;5.40;;;;;;;;;;10229981;29;20584;-84
2022/06/30 08:43:16;;;;;;;11.57;6.03;;;;;;;;;;10227316;29;20507;-85
2022/06/30 08:48:18;;;;;;;10.88;6.43;;;;;;;;;;10232148;29;20414;-86
2022/06/30 08:53:21;;;;;;;12.68;6.28;;;;;;;;;;10234173;29;20820;-86
2022/06/30 08:58:25;;;;;;;10.83;6.10;;;;;;;;;;10231427;29;20420;-86
2022/06/30 09:03:27;;;;;;;12.10;6.68;;;;;;;;;;10232027;28;20408;-86
2022/06/30 09:08:29;;;;;;;14.60;6.78;;;;;;;;;;10236366;29;20415;-86
2022/06/30 09:13:42;;;;;;;9.20;6.53;;;;;;;;;;10233400;29;20424;-86
2022/06/30 09:18:44;;;;;;;13.18;6.20;;;;;;;;;;10233934;29;20862;-86
2022/06/30 09:23:47;;;;;;;9.57;6.03;;;;;;;;;;10235191;29;20412;-85
2022/06/30 09:28:53;;;;;;;13.75;6.47;;;;;;;;;;10232346;29;20896;-86
2022/06/30 09:33:55;;;;;;;10.17;6.07;;;;;;;;;;10208443;29;20481;-86
2022/06/30 09:39:03;;;;;;;15.65;6.85;;;;;;;;;;10209199;29;20946;-85
2022/06/30 09:44:07;;;;;;;13.70;6.97;;;;;;;;;;10205787;29;20405;-86
2022/06/30 09:49:09;;;;;;;13.18;6.30;;;;;;;;;;10207573;29;20418;-86
2022/06/30 09:54:12;;;;;;;12.73;7.40;;;;;;;;;;10207580;29;20921;-85
2022/06/30 09:59:24;;;;;;;9.63;6.13;;;;;;;;;;10204449;29;20855;-86
2022/06/30 10:04:26;;;;;;;13.25;6.22;;;;;;;;;;10202369;29;20525;-85
2022/06/30 10:09:28;;;;;;;12.75;6.97;;;;;;;;;;10207750;29;20497;-85
2022/06/30 10:14:34;;;;;;;12.52;7.05;;;;;;;;;;10208800;29;20458;-85
2022/06/30 10:19:35;;;;;;;12.07;7.13;;;;;;;;;;10215253;29;20433;-86
2022/06/30 10:24:37;;;;;;;12.10;6.77;;;;;;;;;;10213698;29;20415;-86
2022/06/30 10:29:45;;;;;;;15.85;7.00;;;;;;;;;;10221854;29;20412;-86
2022/06/30 10:34:55;;;;;;;12.53;6.27;;;;;;;;;;10225628;29;20437;-85
2022/06/30 10:40:01;;;;;;;14.77;7.00;;;;;;;;;;10222674;29;20420;-86
2022/06/30 10:45:05;;;;;;;15.43;7.00;;;;;;;;;;10220933;29;20420;-85
2022/06/30 10:50:07;;;;;;;10.60;6.70;;;;;;;;;;10218759;29;20418;-86
2022/06/30 10:55:09;;;;;;;15.30;6.60;;;;;;;;;;10227781;29;20405;-85
2022/06/30 11:00:43;;;;;;;13.88;6.47;;;;;;;;;;10227690;29;20432;-86
2022/06/30 11:05:51;;;;;;;15.25;6.65;;;;;;;;;;10223748;29;20441;-86
2022/06/30 11:10:53;;;;;;;11.25;6.43;;;;;;;;;;10212657;29;20412;-84
2022/06/30 11:15:58;;;;;;;12.90;6.65;;;;;;;;;;10225973;29;20423;-85
2022/06/30 11:21:00;;;;;;;14.80;6.55;;;;;;;;;;10220894;29;20945;-84
2022/06/30 11:31:29;;;;;;;16.07;6.43;;;;;;;;;;10255572;28;20426;-85
2022/06/30 11:36:31;;;;;;;12.10;6.87;;;;;;;;;;10221163;29;20441;-85
2022/06/30 11:47:11;;;;;;;11.27;6.90;;;;;;;;;;10101370;29;20399;-86
2022/06/30 11:52:15;;;;;;;14.85;6.53;;;;;;;;;;10174540;29;20417;-86
2022/06/30 11:57:20;;;;;;;10.53;5.63;;;;;;;;;;10193238;29;20423;-86
2022/06/30 12:02:24;;;;;;;17.50;6.25;;;;;;;;;;10214245;29;20934;-86
2022/06/30 12:07:27;;;;;;;11.32;5.65;;;;;;;;;;10223474;29;20443;-84
2022/06/30 12:12:32;;;;;;;12.68;5.88;;;;;;;;;;10229386;29;20495;-86
2022/06/30 12:17:38;;;;;;;10.95;5.90;;;;;;;;;;10210911;29;20416;-86
2022/06/30 12:22:41;;;;;;;11.73;5.95;;;;;;;;;;10228644;29;20796;-86
2022/06/30 12:27:45;;;;;;;13.07;6.27;;;;;;;;;;10222355;29;20774;-86
2022/06/30 12:32:56;;;;;;;14.38;6.03;;;;;;;;;;10223954;29;20417;-87
2022/06/30 12:38:08;;;;;;;11.15;5.72;;;;;;;;;;10219855;28;20915;-87
2022/06/30 12:43:10;;;;;;;11.07;6.43;;;;;;;;;;10214584;29;20465;-87
2022/06/30 12:48:15;;;;;;;14.38;6.13;;;;;;;;;;10218576;29;20485;-87
2022/06/30 12:53:19;;;;;;;10.03;5.30;;;;;;;;;;10219913;29;20883;-85
2022/06/30 12:58:21;;;;;;;13.77;5.80;;;;;;;;;;10218353;29;20508;-82
2022/06/30 13:03:25;;;;;;;14.98;5.93;;;;;;;;;;10218368;29;20437;-84
2022/06/30 13:08:27;;;;;;;9.93;5.50;;;;;;;;;;10217117;29;20427;-84
2022/06/30 13:13:28;;;;;;;10.52;5.65;;;;;;;;;;10215362;29;20426;-83
2022/06/30 13:18:32;;;;;;;10.82;5.28;;;;;;;;;;10218002;29;20447;-84
2022/06/30 13:23:34;;;;;;;11.27;5.78;;;;;;;;;;10217313;29;20454;-85
2022/06/30 13:28:36;;;;;;;14.98;6.28;;;;;;;;;;10216504;29;20412;-85
2022/06/30 13:33:40;;;;;;;13.43;6.60;;;;;;;;;;10220192;29;20825;-85
2022/06/30 13:38:42;;;;;;;13.13;6.30;;;;;;;;;;10216954;29;20439;-85
2022/06/30 13:43:45;;;;;;;9.07;6.50;;;;;;;;;;10218495;29;21005;-85
2022/06/30 13:48:48;;;;;;;12.48;6.53;;;;;;;;;;10215054;29;20917;-85
2022/06/30 13:53:50;;;;;;;11.38;6.82;;;;;;;;;;10209864;29;20420;-85
2022/06/30 13:58:52;;;;;;;13.25;6.97;;;;;;;;;;10211941;29;20505;-85
2022/06/30 14:03:56;;;;;;;12.88;6.28;;;;;;;;;;10208231;29;20451;-85
2022/06/30 14:08:58;;;;;;;12.25;6.18;;;;;;;;;;10203894;29;20857;-83
2022/06/30 14:14:00;;;;;;;12.50;6.00;;;;;;;;;;10230872;23;20429;-84
2022/06/30 14:19:03;;;;;;;11.27;5.65;;;;;;;;;;10237951;28;20408;-85
2022/06/30 14:24:05;;;;;;;11.18;6.10;;;;;;;;;;10240037;28;20419;-89
2022/06/30 14:29:09;;;;;;;9.95;5.70;;;;;;;;;;10247471;28;20919;-87
2022/06/30 14:34:12;;;;;;;12.35;5.80;;;;;;;;;;10247580;28;20439;-87
2022/06/30 14:39:14;;;;;;;13.18;5.30;;;;;;;;;;10249835;28;20410;-87
2022/06/30 14:44:16;;;;;;;11.82;5.70;;;;;;;;;;10250625;28;20491;-87
2022/06/30 14:49:19;;;;;;;10.10;5.30;;;;;;;;;;10251250;28;20932;-87
2022/06/30 14:54:21;;;;;;;10.23;5.10;;;;;;;;;;10256085;28;20485;-87
2022/06/30 14:59:24;;;;;;;11.95;5.05;;;;;;;;;;10255662;28;20403;-88
2022/06/30 15:04:27;;;;;;;10.68;5.60;;;;;;;;;;10250053;28;20956;-87
2022/06/30 15:09:29;;;;;;;8.68;4.88;;;;;;;;;;10245465;28;20883;-88
2022/06/30 15:14:31;;;;;;;10.50;5.10;;;;;;;;;;10224496;28;20420;-88
2022/06/30 15:19:34;;;;;;;14.33;5.43;;;;;;;;;;10215938;28;20455;-88
2022/06/30 15:24:36;;;;;;;11.75;5.18;;;;;;;;;;10218197;28;20436;-88
2022/06/30 15:29:39;;;;;;;9.68;5.15;;;;;;;;;;10214596;28;20408;-88
2022/06/30 15:34:42;;;;;;;10.83;5.03;;;;;;;;;;10231525;28;20416;-88
2022/06/30 15:39:44;;;;;;;9.90;4.90;;;;;;;;;;10232905;28;20436;-85
2022/06/30 15:44:48;;;;;;;10.23;5.20;;;;;;;;;;10232578;28;20451;-88
2022/06/30 15:49:51;;;;;;;12.47;5.37;;;;;;;;;;10233279;28;20497;-87
2022/06/30 15:54:53;;;;;;;11.80;5.18;;;;;;;;;;10238340;28;20554;-87
2022/06/30 15:59:55;;;;;;;10.80;5.40;;;;;;;;;;10241685;28;20913;-88
2022/06/30 16:04:58;;;;;;;12.23;5.45;;;;;;;;;;10243519;28;20503;-88
2022/06/30 16:10:00;;;;;;;10.37;5.43;;;;;;;;;;10235386;28;20735;-88
2022/06/30 16:15:02;;;;;;;10.77;5.43;;;;;;;;;;10250803;28;20516;-88
2022/06/30 16:20:07;;;;;;;9.38;5.00;;;;;;;;;;10251633;28;20503;-88
2022/06/30 16:25:09;;;;;;;13.32;5.30;;;;;;;;;;10249767;28;20491;-87
2022/06/30 16:30:17;;;;;;;8.53;4.80;;;;;;;;;;10245477;28;20407;-85
2022/06/30 16:35:20;;;;;;;10.55;4.50;;;;;;;;;;10251207;28;20768;-88
2022/06/30 16:40:22;;;;;;;12.43;4.75;;;;;;;;;;10240884;28;20420;-87
2022/06/30 16:45:24;;;;;;;8.73;4.67;;;;;;;;;;10230683;28;20893;-87
2022/06/30 16:50:28;;;;;;;10.67;4.67;;;;;;;;;;10252776;28;20415;-88
2022/06/30 16:55:31;;;;;;;12.13;4.30;;;;;;;;;;10239095;28;20415;-87
2022/06/30 17:00:33;;;;;;;10.63;4.88;;;;;;;;;;10231231;28;21236;-90
2022/06/30 17:05:36;;;;;;;10.90;4.90;;;;;;;;;;10224531;28;20425;-88
2022/06/30 17:10:39;;;;;;;9.07;4.35;;;;;;;;;;10222048;28;20871;-87
2022/06/30 17:15:42;;;;;;;10.88;4.78;;;;;;;;;;10212040;28;20932;-87
2022/06/30 17:20:45;;;;;;;10.07;4.05;;;;;;;;;;10222618;28;20525;-87
2022/06/30 17:25:47;;;;;;;7.65;4.63;;;;;;;;;;10221751;28;20791;-86
2022/06/30 17:30:49;;;;;;;10.45;4.53;;;;;;;;;;10225632;28;20882;-87
2022/06/30 17:35:52;;;;;;;9.20;4.30;;;;;;;;;;10238516;28;20418;-87
2022/06/30 17:40:54;;;;;;;14.07;5.03;;;;;;;;;;10252119;28;20507;-86
2022/06/30 17:45:56;;;;;;;12.15;4.63;;;;;;;;;;10250599;28;20419;-86
2022/06/30 17:50:59;;;;;;;11.63;4.97;;;;;;;;;;10225295;28;20421;-87
2022/06/30 17:56:03;;;;;;;9.30;4.20;;;;;;;;;;10234312;28;20406;-86
2022/06/30 18:01:05;;;;;;;10.15;4.50;;;;;;;;;;10234336;28;20437;-86
2022/06/30 18:11:14;;;;;;;12.15;5.03;;;;;;;;;;10229498;28;20420;-86
2022/06/30 18:11:30;;;;;;;9.50;4.90;;;;;;;;;;10225566;28;20406;-87
2022/06/30 18:16:32;;;;;;;8.50;4.97;;;;;;;;;;10230012;28;20528;-84
2022/06/30 18:21:36;;;;;;;11.87;4.70;;;;;;;;;;10222936;28;20426;-84
2022/06/30 18:26:38;;;;;;;10.95;4.72;;;;;;;;;;10221261;28;20410;-84
2022/06/30 18:31:40;;;;;;;10.48;4.95;;;;;;;;;;10218517;28;20416;-86
2022/06/30 18:36:43;;;;;;;9.65;5.18;;;;;;;;;;10231558;28;20414;-85
2022/06/30 18:41:45;;;;;;;9.53;4.57;;;;;;;;;;10241555;28;20481;-84
2022/06/30 18:46:47;;;;;;;8.38;4.43;;;;;;;;;;10246245;28;20971;-85
2022/06/30 18:51:50;;;;;;;10.45;4.60;;;;;;;;;;10231603;28;20430;-84
2022/06/30 18:56:52;;;;;;;10.15;4.68;;;;;;;;;;10229735;28;20412;-85
2022/06/30 19:01:54;;;;;;;12.95;4.30;;;;;;;;;;10230461;28;21015;-85
2022/06/30 19:06:57;;;;;;;10.52;4.40;;;;;;;;;;10228623;28;20425;-85
2022/06/30 19:11:59;;;;;;;12.27;4.32;;;;;;;;;;10224840;28;20410;-84
2022/06/30 19:17:01;;;;;;;11.30;4.20;;;;;;;;;;10224404;28;20434;-85
2022/06/30 19:22:05;;;;;;;8.32;3.75;;;;;;;;;;10224097;28;20450;-85
2022/06/30 19:27:09;;;;;;;15.70;5.27;;;;;;;;;;10228967;28;21400;-84
2022/06/30 19:32:15;;;;;;;9.32;4.07;;;;;;;;;;10220012;28;20445;-85
2022/06/30 19:37:21;;;;;;;8.88;4.30;;;;;;;;;;10230087;28;20529;-85
2022/06/30 19:42:31;;;;;;;9.52;4.72;;;;;;;;;;10229330;28;21213;-85
2022/06/30 19:47:35;;;;;;;13.52;4.63;;;;;;;;;;10235387;28;20417;-85
2022/06/30 19:52:38;;;;;;;8.30;4.50;;;;;;;;;;10235039;28;20414;-85
2022/06/30 19:57:42;;;;;;;10.75;4.00;;;;;;;;;;10235330;28;20418;-86
2022/06/30 20:13:27;;;;;;;8.55;4.25;;;;;;;;;;10233549;28;20776;-85
2022/06/30 20:18:28;;;;;;;8.55;3.90;;;;;;;;;;10235580;28;20874;-84
2022/06/30 20:23:33;;;;;;;10.30;4.20;;;;;;;;;;10235395;28;20430;-85
2022/06/30 20:28:35;;;;;;;8.18;4.07;;;;;;;;;;10234927;28;20423;-84
2022/06/30 20:33:38;;;;;;;11.40;4.07;;;;;;;;;;10235321;28;20430;-85
2022/06/30 20:38:44;;;;;;;11.50;4.40;;;;;;;;;;10230000;28;21333;-86
2022/06/30 20:43:46;;;;;;;14.52;5.53;;;;;;;;;;10234559;28;20519;-85
2022/06/30 20:54:09;;;;;;;11.00;6.00;;;;;;;;;;10236773;28;20414;-85
2022/06/30 20:59:12;;;;;;;13.50;5.60;;;;;;;;;;10240301;28;20933;-85
2022/06/30 21:04:15;;;;;;;12.07;6.20;;;;;;;;;;10234332;28;21284;-85
2022/06/30 21:09:18;;;;;;;11.35;5.72;;;;;;;;;;10222072;28;20886;-84
2022/06/30 21:14:20;;;;;;;12.93;5.93;;;;;;;;;;10232717;28;20433;-85
2022/06/30 21:19:21;;;;;;;13.73;6.10;;;;;;;;;;10237166;28;20420;-86
2022/06/30 21:24:24;;;;;;;10.65;6.00;;;;;;;;;;10239256;28;20434;-85
2022/06/30 21:29:26;;;;;;;11.82;6.20;;;;;;;;;;10226860;28;20420;-84
2022/06/30 21:34:28;;;;;;;11.13;6.53;;;;;;;;;;10223376;28;21047;-86
2022/06/30 21:39:31;;;;;;;15.48;7.15;;;;;;;;;;10221283;28;20429;-83
2022/06/30 21:44:35;;;;;;;12.77;6.77;;;;;;;;;;10213975;28;20547;-85
2022/06/30 21:49:37;;;;;;;11.70;6.43;;;;;;;;;;10213451;28;20428;-86
2022/06/30 21:54:40;;;;;;;11.45;6.57;;;;;;;;;;10218575;28;20438;-86
2022/06/30 21:59:44;;;;;;;10.90;6.45;;;;;;;;;;10213820;28;20429;-86
2022/06/30 22:04:46;;;;;;;13.07;6.47;;;;;;;;;;10212985;28;20422;-85
2022/06/30 22:09:49;;;;;;;12.88;6.38;;;;;;;;;;10222544;28;20936;-86
2022/06/30 22:14:51;;;;;;;13.02;6.68;;;;;;;;;;10225895;28;20507;-86
2022/06/30 22:19:53;;;;;;;13.65;6.30;;;;;;;;;;10222214;28;20422;-85
2022/06/30 22:24:57;;;;;;;14.32;6.43;;;;;;;;;;10247652;28;20430;-86
2022/06/30 22:29:59;;;;;;;11.68;6.07;;;;;;;;;;10237486;28;20409;-85
2022/06/30 22:35:00;;;;;;;12.93;6.35;;;;;;;;;;10237982;28;20418;-85
2022/06/30 22:40:05;;;;;;;10.60;6.05;;;;;;;;;;10224956;28;20409;-85
2022/06/30 22:45:07;;;;;;;13.80;6.05;;;;;;;;;;10248457;28;20450;-85
2022/06/30 22:50:10;;;;;;;12.00;5.60;;;;;;;;;;10255525;28;20461;-84
2022/06/30 22:55:13;;;;;;;14.07;8.10;;;;;;;;;;10261979;28;20504;-85
2022/06/30 23:00:15;;;;;;;13.27;8.23;;;;;;;;;;10255201;28;20408;-85
2022/06/30 23:05:17;;;;;;;12.65;7.63;;;;;;;;;;10262690;28;20531;-85
2022/06/30 23:10:20;;;;;;;14.20;8.77;;;;;;;;;;10257655;28;20503;-87
2022/06/30 23:15:22;;;;;;;17.00;9.45;;;;;;;;;;10264180;28;20412;-87
2022/06/30 23:20:24;;;;;;;14.17;9.40;;;;;;;;;;10258218;28;20500;-85
2022/06/30 23:25:27;;;;;;;15.32;9.68;;;;;;;;;;10263164;28;20459;-85
2022/06/30 23:30:29;;;;;;;14.75;9.60;;;;;;;;;;10261357;28;20491;-86
2022/06/30 23:35:31;;;;;;;13.17;9.73;;;;;;;;;;10255275;28;20408;-84
2022/06/30 23:40:35;;;;;;;19.13;10.27;;;;;;;;;;10260034;28;20415;-85
2022/06/30 23:45:37;;;;;;;13.90;9.57;;;;;;;;;;10257550;28;20438;-85
2022/06/30 23:50:39;;;;;;;13.55;8.95;;;;;;;;;;10256676;28;20499;-87
2022/06/30 23:55:42;;;;;;;12.90;7.95;;;;;;;;;;10257111;28;20956;-87
